Sand Creek, Michigan
Current Conditions -  °F | °C
As of 10:53 AM on Saturday 22 Nov 2014 (Local Time) from KADG Reporting Station
Haze Haze  
Wind Chill: 26°   Ceiling: 2200
Heat Index: 34°   Visibility: 4mi
Dew Point: 32°   Wind: 10mph
Humidity: 92%   Direction: 230°SW
Pressure: 30.09"   Gusts: NA
Location:  41.83°N, 84.1°W
Report Text: KADG 221553Z AUTO 23009KT 4SM BR OVC022 01/00 A3009 RMK AO2 SLP201 T00110000
Loading
Personal Weather Stations






























Interactive Weather Map New forecast layout! Learn more

10-Day Weather Forecast

Advertisements
Track Severe Weather on mobile